Terminal Aerodrome Forecast
Issued by NWS

Current Version | Previous Version | Text Only | Print | Product List | Glossary Off
Versions: 1 2 3 4 5 6 7 8 9 10 11 12 13 14 15 16 17 18 19 20 21 22 23 24 25 26 27 28 29

000
FTUS41 KRLX 200700 AAB
TAFCKB
TAF AMD
KCKB 200701Z 2007/2106 VRB04KT 6SM BR BKN050
      TEMPO 2007/2010 00000KT 4SM BR SCT050
     FM201200 00000KT 6SM BR OVC025
     FM201300 15004KT P6SM BKN035
     FM201600 17004KT P6SM BKN040
     FM202100 19004KT P6SM SCT050=

USA.gov is the U.S. government's official web portal to all federal, state and local government web resources and services.